Terminal Aerodrome Forecast
Issued by NWS

Home | Current Version | Previous Version | Text Only | Print | Product List | Glossary On
Versions: 1 2 3 4 5 6 7 8 9 10 11 12 13 14 15
396
FTUS42 KTBW 082322
TAFPIE
TAF
KPIE 082322Z 0900/0924 35012KT P6SM BKN090 OVC150
     FM090600 01013KT P6SM VCSH SCT050 BKN080 OVC120
     FM091500 02012KT P6SM VCSH SCT050 BKN100 BKN150
     FM091900 02011KT P6SM SCT100 BKN250=

USA.gov is the U.S. government's official web portal to all federal, state and local government web resources and services.